Time;durP1;ratioP1;P1;durP2;ratioP2;P2;SDS_P1;SDS_P2;PMS_P1;PMS_P2;Temp;Humidity;BMP_temperature;BMP_pressure;BME280_temperature;BME280_humidity;BME280_pressure;Samples;Min_cycle;Max_cycle;Signal;HPM_P1;HPM_P2
2021/08/11 00:02:37;;;;;;;7.85;4.55;;;;;;;13.64;74.52;100275.70;1963338;88;21167;-71
2021/08/11 00:05:38;;;;;;;8.73;3.60;;;;;;;13.67;74.49;100285.48;1973185;87;21151;-72
2021/08/11 00:08:39;;;;;;;6.75;4.10;;;;;;;13.71;74.57;100289.12;1972438;88;22492;-70
2021/08/11 00:11:40;;;;;;;7.28;4.12;;;;;;;13.68;74.63;100281.83;1962966;88;21091;-70
2021/08/11 00:14:42;;;;;;;5.97;4.15;;;;;;;13.70;74.72;100287.47;1972996;88;21112;-70
2021/08/11 00:17:43;;;;;;;5.30;3.45;;;;;;;13.73;75.04;100293.26;1976897;87;21103;-70
2021/08/11 00:20:44;;;;;;;4.60;3.42;;;;;;;13.80;75.08;100291.53;1969402;88;21166;-68
2021/08/11 00:23:45;;;;;;;6.03;3.70;;;;;;;13.80;74.87;100296.04;1968925;87;21164;-72
2021/08/11 00:26:46;;;;;;;9.40;3.90;;;;;;;13.81;74.93;100298.51;1972495;88;21090;-68
2021/08/11 00:29:47;;;;;;;7.90;3.87;;;;;;;13.84;75.09;100304.80;1972098;88;22410;-72
2021/08/11 00:32:48;;;;;;;8.65;4.35;;;;;;;13.88;75.22;100308.78;1961736;88;21127;-70
2021/08/11 00:35:49;;;;;;;8.45;3.98;;;;;;;13.94;75.39;100307.70;1930744;89;21110;-71
2021/08/11 00:38:51;;;;;;;8.70;4.03;;;;;;;14.02;75.72;100324.95;1958950;88;21183;-72
2021/08/11 00:41:52;;;;;;;8.35;4.33;;;;;;;14.10;75.83;100330.20;1965377;88;21143;-73
2021/08/11 00:44:54;;;;;;;6.87;3.83;;;;;;;14.10;75.80;100320.86;1954173;87;21215;-70
2021/08/11 00:47:55;;;;;;;10.25;4.30;;;;;;;14.19;75.96;100329.59;1934594;88;21088;-69
2021/08/11 00:50:58;;;;;;;7.45;4.55;;;;;;;14.26;76.24;100334.01;1960888;88;21152;-69
2021/08/11 00:54:01;;;;;;;9.20;5.30;;;;;;;14.31;76.35;100328.95;1955495;88;21123;-71
2021/08/11 00:57:05;;;;;;;7.53;4.75;;;;;;;14.38;76.53;100330.87;1931810;88;21731;-69
2021/08/11 01:00:08;;;;;;;6.53;4.58;;;;;;;14.42;76.54;100324.98;1965241;88;21524;-69
2021/08/11 01:03:21;;;;;;;8.83;4.60;;;;;;;14.48;76.44;100321.56;1950446;87;21232;-69
2021/08/11 01:06:24;;;;;;;8.10;4.35;;;;;;;14.52;76.42;100328.71;1953296;88;21476;-69
2021/08/11 01:09:26;;;;;;;8.95;5.05;;;;;;;14.56;76.57;100316.14;1969946;87;21141;-70
2021/08/11 01:12:29;;;;;;;8.05;4.62;;;;;;;14.60;76.58;100302.41;1956620;88;21178;-75
2021/08/11 01:15:30;;;;;;;10.25;4.50;;;;;;;14.55;76.57;100296.29;1971879;88;21130;-70
2021/08/11 01:18:32;;;;;;;8.78;5.03;;;;;;;14.48;76.64;100294.04;1954574;88;22058;-71
2021/08/11 01:21:54;;;;;;;6.22;4.37;;;;;;;14.47;76.85;100295.89;1960641;87;21125;-72
2021/08/11 01:25:14;;;;;;;8.30;4.83;;;;;;;14.52;76.99;100290.00;1930808;89;21185;-69
2021/08/11 01:28:49;;;;;;;7.15;4.87;;;;;;;14.51;76.97;100287.81;1956997;88;21128;-69
2021/08/11 01:32:02;;;;;;;9.33;4.67;;;;;;;14.53;76.91;100291.16;1919940;88;21139;-74
2021/08/11 01:35:09;;;;;;;9.70;5.35;;;;;;;14.55;77.01;100294.95;1957462;87;21102;-71
2021/08/11 01:38:15;;;;;;;10.90;4.62;;;;;;;14.52;77.13;100296.67;1963296;88;22213;-69
2021/08/11 01:41:19;;;;;;;9.55;5.22;;;;;;;14.49;77.13;100285.00;1967680;88;21571;-69
2021/08/11 01:44:27;;;;;;;8.88;5.85;;;;;;;14.47;77.23;100289.70;1963391;88;21128;-68
2021/08/11 01:47:43;;;;;;;7.80;4.70;;;;;;;14.45;77.40;100295.23;1955050;89;21160;-69
2021/08/11 01:50:46;;;;;;;5.60;4.53;;;;;;;14.46;77.48;100295.55;1924055;89;21174;-69
2021/08/11 01:53:50;;;;;;;7.05;5.12;;;;;;;14.48;77.45;100295.38;1955972;89;21074;-73
2021/08/11 01:56:51;;;;;;;10.30;5.50;;;;;;;14.51;77.52;100295.00;1964943;88;21734;-69
2021/08/11 01:59:53;;;;;;;7.35;5.42;;;;;;;14.54;77.56;100294.65;1967227;88;21148;-70
2021/08/11 02:02:57;;;;;;;8.75;5.55;;;;;;;14.58;77.54;100290.57;1965911;87;21093;-68
2021/08/11 02:06:00;;;;;;;10.38;6.28;;;;;;;14.61;77.62;100282.18;1968531;87;22322;-71
2021/08/11 02:09:03;;;;;;;9.30;5.30;;;;;;;14.61;77.64;100292.86;1963447;88;22308;-69
2021/08/11 02:12:06;;;;;;;10.70;5.97;;;;;;;14.63;77.56;100289.50;1963163;88;21223;-71
2021/08/11 02:15:10;;;;;;;10.32;5.78;;;;;;;14.63;77.37;100288.69;1962125;88;21145;-69
2021/08/11 02:18:12;;;;;;;8.28;4.90;;;;;;;14.61;77.26;100293.38;1958881;87;21194;-70
2021/08/11 02:21:15;;;;;;;7.45;5.08;;;;;;;14.56;76.98;100285.95;1942445;88;21147;-70
2021/08/11 02:24:18;;;;;;;6.10;4.75;;;;;;;14.52;76.92;100293.48;1961914;88;21122;-71
2021/08/11 02:27:28;;;;;;;10.25;5.00;;;;;;;14.50;76.79;100290.65;1962690;88;21062;-70
2021/08/11 02:30:55;;;;;;;8.43;4.75;;;;;;;14.49;76.86;100303.69;1976295;87;21085;-68
2021/08/11 02:34:16;;;;;;;7.83;4.50;;;;;;;14.47;76.88;100303.05;1961867;88;21596;-76
2021/08/11 02:37:27;;;;;;;9.73;4.85;;;;;;;14.48;76.83;100302.88;1957773;89;21224;-68
2021/08/11 02:40:40;;;;;;;6.62;4.65;;;;;;;14.45;76.59;100301.09;1954767;89;21125;-70
2021/08/11 02:43:55;;;;;;;7.47;4.55;;;;;;;14.39;76.60;100300.00;1960615;88;21092;-71
2021/08/11 02:46:58;;;;;;;8.78;6.10;;;;;;;14.37;76.41;100299.34;1965682;88;21151;-70
2021/08/11 02:50:00;;;;;;;7.75;5.35;;;;;;;14.36;76.83;100293.70;1966454;88;21143;-72
2021/08/11 02:53:04;;;;;;;8.80;5.25;;;;;;;14.35;76.93;100296.03;1974891;87;21108;-69
2021/08/11 02:56:06;;;;;;;8.13;5.40;;;;;;;14.30;76.86;100291.75;1962361;89;21098;-73
2021/08/11 02:59:08;;;;;;;10.88;5.08;;;;;;;14.24;76.56;100298.66;1956709;88;21134;-69
2021/08/11 03:02:10;;;;;;;6.08;4.65;;;;;;;14.18;76.54;100299.41;1962996;89;21111;-68
2021/08/11 03:05:11;;;;;;;5.87;4.67;;;;;;;14.12;76.33;100302.83;1969239;88;21140;-70
2021/08/11 03:08:14;;;;;;;8.85;4.87;;;;;;;14.08;76.21;100308.23;1965323;88;21652;-68
2021/08/11 03:11:16;;;;;;;8.95;3.95;;;;;;;14.03;76.00;100301.28;1959228;88;21142;-68
2021/08/11 03:14:17;;;;;;;5.72;4.00;;;;;;;13.98;75.96;100297.00;1962323;87;21574;-70
2021/08/11 03:17:19;;;;;;;6.42;4.20;;;;;;;13.93;76.14;100300.72;1959698;88;22326;-69
2021/08/11 03:20:21;;;;;;;7.20;4.92;;;;;;;13.86;76.45;100300.12;1935305;89;21215;-70
2021/08/11 03:23:22;;;;;;;11.10;4.70;;;;;;;13.84;76.33;100310.14;1965118;88;21133;-69
2021/08/11 03:26:24;;;;;;;5.50;4.28;;;;;;;13.81;76.22;100309.17;1968499;88;21203;-68
2021/08/11 03:29:26;;;;;;;6.97;4.33;;;;;;;13.79;75.98;100311.70;1960848;87;21107;-75
2021/08/11 03:32:27;;;;;;;9.45;4.42;;;;;;;13.75;75.93;100315.76;1944269;89;21144;-70
2021/08/11 03:35:28;;;;;;;7.47;5.03;;;;;;;13.71;75.73;100316.61;1957744;89;21637;-68
2021/08/11 03:38:30;;;;;;;8.40;5.30;;;;;;;13.66;75.71;100311.84;1959565;88;21652;-70
2021/08/11 03:41:31;;;;;;;9.35;4.83;;;;;;;13.63;75.91;100316.72;1962949;88;21081;-69
2021/08/11 03:44:33;;;;;;;11.60;5.17;;;;;;;13.61;75.88;100314.22;1968888;88;21147;-75
2021/08/11 03:47:41;;;;;;;6.62;4.97;;;;;;;13.61;75.65;100322.72;1954683;88;21179;-69
2021/08/11 03:50:43;;;;;;;6.28;4.53;;;;;;;13.58;75.66;100318.58;1968049;88;21850;-71
2021/08/11 03:53:44;;;;;;;5.65;5.00;;;;;;;13.57;75.61;100321.41;1966630;88;21129;-70
2021/08/11 03:56:46;;;;;;;8.53;5.30;;;;;;;13.60;75.73;100317.05;1955946;88;21762;-70
2021/08/11 03:59:47;;;;;;;10.90;4.97;;;;;;;13.60;75.71;100323.71;1962731;87;21760;-73
2021/08/11 04:02:49;;;;;;;5.53;3.60;;;;;;;13.63;75.87;100322.88;1965917;87;21631;-71
2021/08/11 04:05:51;;;;;;;4.87;3.87;;;;;;;13.78;75.82;100328.21;1963732;88;21282;-72
2021/08/11 04:08:52;;;;;;;12.35;5.37;;;;;;;14.01;75.77;100322.80;1961469;88;21162;-70
2021/08/11 04:11:53;;;;;;;4.33;3.67;;;;;;;14.22;75.96;100332.73;1963372;87;21152;-70
2021/08/11 04:14:54;;;;;;;9.40;5.22;;;;;;;14.45;75.50;100335.80;1965686;88;21638;-72
2021/08/11 04:17:55;;;;;;;6.80;5.58;;;;;;;14.64;75.79;100327.71;1962360;87;21035;-70
2021/08/11 04:20:56;;;;;;;7.45;5.53;;;;;;;14.72;75.77;100325.75;1962092;87;21199;-71
2021/08/11 04:23:57;;;;;;;11.50;6.67;;;;;;;14.70;75.47;100332.33;1939781;88;21636;-71
2021/08/11 04:26:58;;;;;;;7.67;6.17;;;;;;;14.58;75.50;100339.97;1963323;88;21754;-71
2021/08/11 04:29:59;;;;;;;8.58;6.30;;;;;;;14.51;75.18;100348.39;1963148;88;21118;-69
2021/08/11 04:33:00;;;;;;;8.38;5.80;;;;;;;14.48;75.30;100347.44;1958456;87;21159;-69
2021/08/11 04:36:01;;;;;;;10.48;5.65;;;;;;;14.49;75.17;100351.23;1962866;89;21161;-73
2021/08/11 04:39:03;;;;;;;5.30;4.80;;;;;;;14.60;75.06;100352.63;1960787;88;22935;-70
2021/08/11 04:42:04;;;;;;;6.92;5.97;;;;;;;14.92;75.84;100357.20;1942819;88;21135;-72
2021/08/11 04:45:07;;;;;;;6.42;5.10;;;;;;;15.45;75.95;100359.05;1967393;88;21180;-74
2021/08/11 04:48:09;;;;;;;6.42;5.37;;;;;;;16.07;75.79;100363.65;1961872;88;21232;-69
2021/08/11 04:51:10;;;;;;;7.80;5.40;;;;;;;16.67;75.47;100359.09;1954518;89;21661;-70
2021/08/11 04:54:13;;;;;;;9.03;5.67;;;;;;;17.26;75.12;100357.12;1948630;88;21173;-69
2021/08/11 04:57:14;;;;;;;9.38;5.80;;;;;;;17.85;74.61;100356.33;1963975;88;21121;-69
2021/08/11 05:00:16;;;;;;;11.30;6.65;;;;;;;18.46;74.28;100363.70;1960621;88;21692;-73
2021/08/11 05:03:17;;;;;;;7.58;5.65;;;;;;;18.99;73.70;100361.61;1939593;88;21055;-70
2021/08/11 05:06:19;;;;;;;9.23;5.55;;;;;;;19.20;72.89;100360.95;1972841;87;21163;-69
2021/08/11 05:09:20;;;;;;;8.30;5.65;;;;;;;19.52;72.55;100364.98;1972587;87;21087;-75
2021/08/11 05:12:21;;;;;;;8.53;4.58;;;;;;;20.00;72.13;100366.53;1967414;87;21118;-73
2021/08/11 05:15:22;;;;;;;9.98;5.22;;;;;;;20.45;71.25;100366.25;1956387;89;21094;-74
2021/08/11 05:18:24;;;;;;;11.93;5.33;;;;;;;20.89;70.57;100364.28;1963415;88;21084;-69
2021/08/11 05:21:25;;;;;;;6.80;4.62;;;;;;;21.33;69.88;100365.39;1959429;88;21048;-73
2021/08/11 05:24:27;;;;;;;7.42;4.50;;;;;;;21.63;69.02;100369.41;1964564;88;21098;-75
2021/08/11 05:27:27;;;;;;;7.22;4.75;;;;;;;21.71;68.07;100369.06;1944047;88;21175;-73
2021/08/11 05:30:29;;;;;;;5.92;4.10;;;;;;;21.86;67.82;100373.45;1969103;87;21183;-71
2021/08/11 05:33:30;;;;;;;6.00;3.85;;;;;;;22.09;66.35;100370.45;1961216;88;21214;-71
2021/08/11 05:36:31;;;;;;;5.55;4.20;;;;;;;21.89;66.04;100374.34;1968214;87;21221;-70
2021/08/11 05:39:32;;;;;;;4.75;3.87;;;;;;;21.99;66.20;100383.22;1955611;88;21124;-70
2021/08/11 05:42:33;;;;;;;7.87;4.05;;;;;;;22.13;65.19;100383.27;1967504;88;21146;-71
2021/08/11 05:45:34;;;;;;;7.97;4.33;;;;;;;22.36;65.42;100381.09;1965641;88;21174;-76
2021/08/11 05:48:35;;;;;;;6.15;3.92;;;;;;;22.66;64.64;100387.34;1958932;88;21106;-70
2021/08/11 05:51:57;;;;;;;6.33;3.95;;;;;;;22.64;63.57;100385.41;1959943;87;21077;-76
2021/08/11 05:54:58;;;;;;;4.75;3.90;;;;;;;22.36;63.91;100392.44;1942662;89;21234;-79
2021/08/11 05:58:00;;;;;;;5.70;3.65;;;;;;;22.07;63.46;100390.94;1922291;91;21067;-76
2021/08/11 06:01:01;;;;;;;6.55;3.58;;;;;;;21.71;63.31;100387.97;1949777;89;21676;-78
2021/08/11 06:04:02;;;;;;;6.53;3.72;;;;;;;21.40;63.41;100385.86;1970830;88;21166;-79
2021/08/11 06:07:10;;;;;;;5.03;3.70;;;;;;;21.04;63.74;100395.69;1946964;84;21744;31
2021/08/11 06:14:10;;;;;;;6.00;4.22;;;;;;;21.27;64.50;100403.03;2028957;84;21655;-79
2021/08/11 06:17:11;;;;;;;4.95;3.40;;;;;;;21.71;64.32;100394.72;2026597;86;21089;-78
2021/08/11 06:20:16;;;;;;;6.00;3.55;;;;;;;22.29;63.55;100391.19;2038895;85;21097;-78
2021/08/11 06:23:17;;;;;;;5.50;3.22;;;;;;;22.58;62.60;100395.30;2037883;86;21078;-76
2021/08/11 06:26:20;;;;;;;8.38;3.98;;;;;;;23.02;61.89;100394.30;2040872;85;21501;-81
2021/08/11 06:29:21;;;;;;;8.65;3.90;;;;;;;23.33;61.60;100390.26;2045431;85;21122;-82
2021/08/11 06:32:22;;;;;;;6.97;3.20;;;;;;;23.66;60.10;100390.00;2036945;85;21559;-83
2021/08/11 06:35:23;;;;;;;5.37;3.20;;;;;;;23.59;59.83;100392.85;2044764;85;21096;-76
2021/08/11 06:38:25;;;;;;;5.33;3.47;;;;;;;23.30;59.53;100398.05;2033791;85;21082;-84
2021/08/11 06:41:26;;;;;;;7.30;4.20;;;;;;;23.57;59.65;100400.42;2035969;86;21053;-84
2021/08/11 06:44:32;;;;;;;5.58;3.85;;;;;;;23.80;58.55;100409.48;2030210;85;21176;-83
2021/08/11 06:47:36;;;;;;;5.55;3.80;;;;;;;24.01;58.55;100404.64;2034282;85;22009;-83
2021/08/11 06:50:37;;;;;;;5.28;3.30;;;;;;;24.26;57.97;100403.37;2021643;85;21101;-83
2021/08/11 06:53:38;;;;;;;8.88;4.17;;;;;;;24.37;57.53;100405.14;2013464;85;21118;-82
2021/08/11 06:56:40;;;;;;;4.62;3.45;;;;;;;24.45;56.98;100412.06;2023592;84;21052;-82
2021/08/11 06:59:43;;;;;;;8.60;3.85;;;;;;;24.48;56.56;100406.95;2021013;85;21547;-82
2021/08/11 07:02:45;;;;;;;6.50;3.45;;;;;;;24.58;56.26;100416.58;2033177;85;21100;-82
2021/08/11 07:05:46;;;;;;;5.95;3.92;;;;;;;24.83;55.92;100412.52;2036995;85;21244;-82
2021/08/11 07:08:47;;;;;;;4.53;3.52;;;;;;;24.81;55.46;100414.14;2031053;85;21167;-82
2021/08/11 07:11:49;;;;;;;4.53;3.42;;;;;;;24.99;55.10;100418.94;2035441;85;21196;-82
2021/08/11 07:14:50;;;;;;;4.80;3.35;;;;;;;25.19;55.49;100423.80;2035807;85;21708;-83
2021/08/11 07:17:56;;;;;;;6.62;3.60;;;;;;;25.43;55.11;100421.05;2029116;85;21238;-82
2021/08/11 07:20:58;;;;;;;7.03;3.87;;;;;;;25.76;54.56;100419.13;2031500;85;21177;-81
2021/08/11 07:23:59;;;;;;;4.40;3.55;;;;;;;26.05;54.08;100409.33;2027343;85;21490;-80
2021/08/11 07:27:00;;;;;;;4.22;3.47;;;;;;;26.31;53.91;100409.73;2009034;86;21118;-80
2021/08/11 07:30:04;;;;;;;4.58;4.12;;;;;;;26.48;53.09;100409.55;1955267;89;21173;-80
2021/08/11 07:33:08;;;;;;;4.05;3.17;;;;;;;26.42;52.54;100406.53;1964644;88;21599;-80
2021/08/11 07:36:09;;;;;;;5.05;3.55;;;;;;;26.71;52.33;100408.30;1977590;88;21203;-79
2021/08/11 07:39:11;;;;;;;4.42;3.33;;;;;;;26.73;50.93;100408.87;1995275;87;21074;-80
2021/08/11 07:42:12;;;;;;;6.17;3.83;;;;;;;26.78;51.15;100411.61;1979687;88;21144;-80
2021/08/11 07:45:15;;;;;;;7.05;3.87;;;;;;;26.87;50.91;100418.71;2015790;86;21152;-80
2021/08/11 07:48:17;;;;;;;4.08;3.62;;;;;;;26.92;50.67;100413.80;2011439;86;21153;-80
2021/08/11 07:51:18;;;;;;;5.15;3.67;;;;;;;26.60;49.80;100423.77;2033992;85;21144;-80
2021/08/11 07:54:21;;;;;;;5.47;3.75;;;;;;;26.53;50.02;100417.77;2008295;86;21259;-80
2021/08/11 07:57:22;;;;;;;9.25;3.80;;;;;;;26.75;50.06;100429.00;2004922;87;21583;-80
2021/08/11 08:00:24;;;;;;;5.45;3.75;;;;;;;26.70;48.70;100426.28;2000511;87;21146;-80
2021/08/11 08:03:26;;;;;;;3.95;3.30;;;;;;;26.64;48.93;100425.44;2009014;86;21059;-80
2021/08/11 08:06:27;;;;;;;4.55;3.62;;;;;;;26.60;48.79;100432.48;1980691;87;21198;-80
2021/08/11 08:09:28;;;;;;;6.62;3.50;;;;;;;26.85;49.05;100433.13;1999594;86;21118;-80
2021/08/11 08:12:30;;;;;;;4.55;3.55;;;;;;;27.14;47.81;100436.19;1983633;87;21673;-80
2021/08/11 08:15:31;;;;;;;7.53;3.85;;;;;;;27.03;48.23;100433.16;1984468;87;21111;-80
2021/08/11 08:18:32;;;;;;;4.35;3.40;;;;;;;27.15;47.68;100439.20;1994553;87;21122;-80
2021/08/11 08:21:35;;;;;;;4.58;3.45;;;;;;;27.13;47.77;100443.28;2005945;86;21120;-80
2021/08/11 08:24:37;;;;;;;4.78;3.33;;;;;;;27.42;47.21;100430.00;1998826;87;21239;-81
2021/08/11 08:27:39;;;;;;;4.45;3.27;;;;;;;27.22;46.68;100434.33;1995189;86;21097;-80
2021/08/11 08:30:43;;;;;;;4.97;3.47;;;;;;;27.07;46.45;100443.00;1997281;87;21105;-80
2021/08/11 08:33:44;;;;;;;3.67;3.00;;;;;;;27.03;45.98;100437.25;1999385;87;21097;-80
2021/08/11 08:36:45;;;;;;;8.98;3.65;;;;;;;26.71;45.96;100443.69;1993999;87;21444;-80
2021/08/11 08:39:46;;;;;;;3.95;3.30;;;;;;;26.41;45.96;100443.51;2001917;87;21068;-80
2021/08/11 08:42:47;;;;;;;5.42;3.47;;;;;;;25.82;46.52;100448.01;2000339;87;21082;-80
2021/08/11 08:45:49;;;;;;;5.10;3.15;;;;;;;25.80;47.10;100450.16;1993070;87;21598;-81
2021/08/11 08:48:51;;;;;;;6.28;3.52;;;;;;;26.00;47.41;100451.42;2001459;86;21382;-80
2021/08/11 08:51:53;;;;;;;3.55;3.05;;;;;;;26.28;46.95;100440.19;2006383;86;21141;-80
2021/08/11 08:54:59;;;;;;;5.12;2.90;;;;;;;26.51;46.10;100443.60;2008224;87;21584;-80
2021/08/11 08:58:05;;;;;;;4.37;2.95;;;;;;;26.09;46.47;100435.71;2002201;87;21394;-80
2021/08/11 09:01:06;;;;;;;4.47;3.10;;;;;;;26.35;46.61;100441.30;1993287;87;21650;-80
2021/08/11 09:04:09;;;;;;;4.08;3.37;;;;;;;26.68;45.68;100437.97;2003286;86;21116;-80
2021/08/11 09:07:19;;;;;;;4.45;3.08;;;;;;;26.76;46.45;100434.19;1996539;87;21100;-80
2021/08/11 09:10:27;;;;;;;5.78;3.52;;;;;;;26.77;45.54;100434.45;1999214;86;21572;-80
2021/08/11 09:13:28;;;;;;;4.78;3.25;;;;;;;26.90;45.83;100436.42;1960826;88;21076;-80
2021/08/11 09:16:30;;;;;;;3.70;3.17;;;;;;;27.01;45.62;100444.34;2037610;85;21184;-80
2021/08/11 09:19:44;;;;;;;5.15;3.20;;;;;;;27.36;45.39;100439.27;2031205;85;21135;-80
2021/08/11 09:22:51;;;;;;;32.13;4.47;;;;;;;27.59;45.02;100434.64;2024260;85;21128;-80
2021/08/11 09:26:01;;;;;;;3.75;2.80;;;;;;;27.42;43.88;100438.98;1985743;87;21117;-80
2021/08/11 09:29:06;;;;;;;4.55;2.37;;;;;;;27.02;43.89;100432.91;2030800;85;21632;-80
2021/08/11 09:32:07;;;;;;;3.65;3.08;;;;;;;26.81;43.36;100428.77;2041301;85;22623;-80
2021/08/11 09:35:09;;;;;;;6.33;2.65;;;;;;;26.70;44.38;100431.17;1991805;87;21030;-80
2021/08/11 09:38:13;;;;;;;2.77;2.58;;;;;;;26.79;43.87;100434.20;1974651;87;21195;-80
2021/08/11 09:41:14;;;;;;;4.03;3.33;;;;;;;26.89;44.64;100437.48;2004852;87;21076;-80
2021/08/11 09:44:16;;;;;;;5.05;3.05;;;;;;;27.10;43.34;100435.11;1946270;89;21089;-80
2021/08/11 09:47:17;;;;;;;3.90;2.45;;;;;;;27.22;44.06;100434.33;2037504;85;21094;-80
2021/08/11 09:50:18;;;;;;;3.00;2.62;;;;;;;27.36;43.08;100434.63;2029920;85;22345;-80
2021/08/11 09:53:28;;;;;;;4.20;2.67;;;;;;;27.44;42.75;100436.81;2032075;85;21118;-80
2021/08/11 09:56:34;;;;;;;4.42;2.50;;;;;;;27.29;42.24;100438.17;2037478;85;21608;-80
2021/08/11 10:00:00;;;;;;;2.72;2.50;;;;;;;27.20;41.58;100435.69;2033100;86;21151;-80
2021/08/11 10:03:03;;;;;;;3.10;2.80;;;;;;;27.08;41.37;100425.02;2035356;85;21088;-81
2021/08/11 10:06:05;;;;;;;3.20;2.90;;;;;;;27.07;42.82;100437.01;2030674;85;21877;-80
2021/08/11 10:09:25;;;;;;;4.92;2.90;;;;;;;26.85;41.86;100431.77;2014961;86;21156;-80
2021/08/11 10:12:28;;;;;;;3.75;2.87;;;;;;;26.44;42.44;100436.17;1983765;86;21165;-79
2021/08/11 10:15:30;;;;;;;2.90;2.40;;;;;;;26.36;42.96;100431.53;1979421;87;21681;-79
2021/08/11 10:18:38;;;;;;;14.87;2.75;;;;;;;26.49;43.10;100441.65;1980817;88;21228;-79
2021/08/11 10:21:50;;;;;;;16.57;3.27;;;;;;;26.70;43.08;100435.26;1974507;87;21133;-79
2021/08/11 10:24:54;;;;;;;2.92;2.67;;;;;;;26.99;42.27;100437.53;1967498;88;21120;-80
2021/08/11 10:27:57;;;;;;;3.17;2.55;;;;;;;26.98;40.82;100452.23;1973394;88;21073;-79
2021/08/11 10:30:58;;;;;;;4.97;2.47;;;;;;;26.83;41.78;100451.63;1968555;88;21127;-79
2021/08/11 10:34:02;;;;;;;3.62;2.77;;;;;;;26.81;41.73;100446.45;1972962;88;21133;-78
2021/08/11 10:37:05;;;;;;;3.12;2.60;;;;;;;26.82;42.16;100445.36;1977871;87;21878;-80
2021/08/11 10:40:07;;;;;;;3.47;2.67;;;;;;;26.51;41.94;100455.84;1973809;88;21096;-77
2021/08/11 10:43:13;;;;;;;3.12;2.77;;;;;;;26.34;42.25;100454.09;1979046;88;21148;-79
2021/08/11 10:46:18;;;;;;;9.28;4.83;;;;;;;26.47;42.47;100451.45;1978249;88;21053;-80
2021/08/11 10:49:20;;;;;;;5.28;3.17;;;;;;;26.37;42.24;100450.02;1973078;88;21156;-78
2021/08/11 10:52:22;;;;;;;5.35;2.72;;;;;;;26.69;42.49;100439.05;1979225;88;21094;-77
2021/08/11 10:55:44;;;;;;;4.72;2.60;;;;;;;26.81;42.33;100445.09;1985578;87;21150;-78
2021/08/11 10:58:46;;;;;;;4.45;2.80;;;;;;;26.83;41.76;100451.10;1975494;88;21180;-81
2021/08/11 11:01:57;;;;;;;2.98;2.65;;;;;;;26.96;42.63;100439.42;2010266;86;21077;-78
2021/08/11 11:04:58;;;;;;;6.28;2.80;;;;;;;27.24;42.26;100443.06;1985204;88;21206;-78
2021/08/11 11:08:15;;;;;;;3.25;2.67;;;;;;;26.85;41.49;100445.92;1967908;88;21335;-80
2021/08/11 11:11:33;;;;;;;3.58;2.70;;;;;;;26.30;41.60;100451.63;2008536;86;21065;-78
2021/08/11 11:14:56;;;;;;;3.35;2.85;;;;;;;25.55;41.90;100453.48;1989347;88;21336;-78
2021/08/11 11:18:22;;;;;;;6.28;2.75;;;;;;;24.93;42.52;100462.03;2032271;85;21073;-79
2021/08/11 11:21:28;;;;;;;5.60;2.70;;;;;;;24.62;43.21;100453.52;2012595;86;21652;-78
2021/08/11 11:24:50;;;;;;;6.42;3.00;;;;;;;24.49;43.93;100462.02;2025507;86;21126;-77
2021/08/11 11:27:59;;;;;;;4.33;3.20;;;;;;;24.73;44.50;100451.75;1975877;88;21208;-77
2021/08/11 11:30:55;;;;;;;3.22;2.60;;;;;;;25.13;44.98;100454.66;1977365;87;21685;-78
2021/08/11 11:34:21;;;;;;;4.17;2.65;;;;;;;25.41;44.32;100459.05;1984871;87;21209;-77
2021/08/11 11:37:23;;;;;;;3.05;2.58;;;;;;;25.70;43.80;100458.22;1971031;87;21619;-77
2021/08/11 11:40:24;;;;;;;3.95;2.50;;;;;;;26.01;43.37;100457.13;1971418;88;21681;-77
2021/08/11 11:43:30;;;;;;;2.80;2.55;;;;;;;26.12;43.31;100454.22;1977907;88;21453;-77
2021/08/11 11:46:47;;;;;;;3.22;2.87;;;;;;;26.31;42.66;100457.88;1971687;88;21150;-78
2021/08/11 11:50:11;;;;;;;4.42;2.62;;;;;;;26.23;41.62;100455.66;1967884;88;21420;-77
2021/08/11 11:53:34;;;;;;;2.52;2.25;;;;;;;26.03;41.46;100456.34;1975866;88;21814;-78
2021/08/11 11:56:37;;;;;;;4.15;2.75;;;;;;;26.02;41.58;100452.80;2003274;87;21046;-78
2021/08/11 11:59:48;;;;;;;5.37;2.95;;;;;;;25.88;41.34;100455.15;2010148;87;21130;-78
2021/08/11 12:02:53;;;;;;;3.55;2.60;;;;;;;25.81;41.07;100447.71;2001041;87;21622;-77
2021/08/11 12:05:54;;;;;;;2.52;2.00;;;;;;;25.93;40.75;100455.19;1999196;86;21585;-78
2021/08/11 12:08:56;;;;;;;3.30;2.55;;;;;;;25.93;40.80;100451.63;1996910;86;21078;-78
2021/08/11 12:11:57;;;;;;;3.50;2.60;;;;;;;25.92;39.55;100439.13;1995494;87;21189;-79
2021/08/11 12:15:21;;;;;;;3.67;2.55;;;;;;;25.83;40.09;100446.14;1998843;87;21618;-78
2021/08/11 12:18:25;;;;;;;3.17;2.35;;;;;;;25.82;39.95;100441.73;2009505;86;21600;-77
2021/08/11 12:21:26;;;;;;;3.25;2.70;;;;;;;25.89;40.64;100445.91;1994576;87;21076;-80
2021/08/11 12:24:27;;;;;;;3.67;2.37;;;;;;;25.94;40.15;100439.70;1998538;86;21149;-78
2021/08/11 12:27:28;;;;;;;4.55;2.70;;;;;;;25.89;39.72;100443.19;1987467;87;21604;-76
2021/08/11 12:30:30;;;;;;;3.45;2.95;;;;;;;26.02;39.99;100439.77;1999824;86;21086;-77
2021/08/11 12:33:36;;;;;;;8.90;2.72;;;;;;;26.21;39.54;100433.33;2004191;87;21231;-77
2021/08/11 12:36:43;;;;;;;5.33;2.15;;;;;;;26.37;38.21;100432.34;2029694;85;21110;-77
2021/08/11 12:39:41;;;;;;;3.55;2.45;;;;;;;26.23;37.59;100439.34;2018787;85;21102;-78
2021/08/11 12:42:56;;;;;;;4.80;2.85;;;;;;;25.97;38.28;100438.36;2042757;85;21645;-77
2021/08/11 12:46:00;;;;;;;3.05;2.35;;;;;;;25.82;38.62;100433.06;2037479;85;21165;-77
2021/08/11 12:49:26;;;;;;;4.03;2.08;;;;;;;25.74;39.03;100430.82;2040037;85;21094;-78
2021/08/11 12:52:27;;;;;;;3.02;2.45;;;;;;;25.73;39.75;100435.95;2031748;85;21067;-78
2021/08/11 12:55:34;;;;;;;3.25;2.75;;;;;;;25.75;40.25;100431.64;2028236;85;21189;-77
2021/08/11 12:58:58;;;;;;;3.08;2.40;;;;;;;25.82;39.48;100437.14;2037953;85;21164;-78
2021/08/11 13:01:59;;;;;;;3.30;2.40;;;;;;;25.68;39.38;100440.02;2008451;85;21118;-77
2021/08/11 13:05:13;;;;;;;3.08;2.30;;;;;;;25.29;40.08;100444.27;2019609;86;21153;-77
2021/08/11 13:08:15;;;;;;;2.77;2.45;;;;;;;25.12;40.38;100444.34;2023416;85;21121;-78
2021/08/11 13:11:17;;;;;;;2.60;2.30;;;;;;;25.21;40.91;100444.73;2001617;85;21989;-78
2021/08/11 13:14:55;;;;;;;3.20;2.20;;;;;;;25.28;40.49;100443.97;2009880;86;21075;-78
2021/08/11 13:18:00;;;;;;;2.90;2.52;;;;;;;25.26;40.41;100440.72;2038983;85;21101;-78
2021/08/11 13:21:02;;;;;;;2.45;2.25;;;;;;;25.08;40.66;100436.41;2026830;85;21749;-78
2021/08/11 13:24:04;;;;;;;5.12;2.05;;;;;;;25.02;40.80;100442.31;2035642;85;21066;-78
2021/08/11 13:27:08;;;;;;;4.87;2.40;;;;;;;25.04;41.40;100441.53;2029854;85;21363;-78
2021/08/11 13:30:10;;;;;;;3.85;2.30;;;;;;;24.87;40.91;100438.62;2037775;85;22437;-78
2021/08/11 13:33:11;;;;;;;2.50;2.30;;;;;;;24.86;40.98;100432.36;2025893;85;22157;-77
2021/08/11 13:36:13;;;;;;;2.85;2.10;;;;;;;24.86;40.44;100441.04;1997953;87;21070;-78
2021/08/11 13:39:15;;;;;;;3.55;2.42;;;;;;;24.72;40.70;100436.53;1983185;87;21141;-78
2021/08/11 13:42:16;;;;;;;3.42;2.10;;;;;;;24.79;40.85;100442.06;2005493;87;21687;-78
2021/08/11 13:45:18;;;;;;;4.92;2.15;;;;;;;24.86;40.47;100441.85;1962268;88;21087;-80
2021/08/11 13:48:19;;;;;;;2.85;2.08;;;;;;;24.87;40.17;100440.80;1975648;88;21185;-79
2021/08/11 13:51:21;;;;;;;2.83;2.20;;;;;;;24.94;40.66;100435.98;1981234;88;21115;-78
2021/08/11 13:54:24;;;;;;;4.55;2.72;;;;;;;25.00;40.34;100445.84;1965798;88;21113;-78
2021/08/11 13:57:28;;;;;;;11.20;2.62;;;;;;;25.04;40.54;100442.89;1983369;88;21686;-78
2021/08/11 14:00:29;;;;;;;2.50;1.90;;;;;;;25.17;40.33;100442.23;1983095;87;21652;-80
2021/08/11 14:03:31;;;;;;;4.65;2.58;;;;;;;25.22;40.08;100438.21;2003458;86;21701;-76
2021/08/11 14:06:32;;;;;;;3.67;2.72;;;;;;;25.24;40.40;100440.95;1999536;87;21180;-78
2021/08/11 14:09:33;;;;;;;3.58;2.55;;;;;;;25.26;40.42;100448.32;2021716;86;21179;-78
2021/08/11 14:12:35;;;;;;;4.53;3.00;;;;;;;25.18;40.68;100446.60;2021003;86;21162;-79
2021/08/11 14:15:36;;;;;;;3.87;2.52;;;;;;;24.99;40.74;100450.97;2014920;86;21635;-78
2021/08/11 14:18:37;;;;;;;2.92;2.40;;;;;;;24.80;40.46;100444.23;2038509;85;21096;-78
2021/08/11 14:21:38;;;;;;;4.03;2.58;;;;;;;24.60;41.19;100440.19;2023811;86;21627;-78